sensor_id;sensor_type;location;lat;lon;timestamp;pressure;altitude;pressure_sealevel;temperature
55038;BMP280;40937;53.594;10.034;2023-06-14T00:01:57;102039.31;;;17.40
55038;BMP280;40937;53.594;10.034;2023-06-14T00:04:24;102039.88;;;17.43
55038;BMP280;40937;53.594;10.034;2023-06-14T00:06:53;102046.88;;;17.49
55038;BMP280;40937;53.594;10.034;2023-06-14T00:09:22;102040.25;;;17.51
55038;BMP280;40937;53.594;10.034;2023-06-14T00:11:49;102046.88;;;17.49
55038;BMP280;40937;53.594;10.034;2023-06-14T00:14:16;102049.22;;;17.45
55038;BMP280;40937;53.594;10.034;2023-06-14T00:16:43;102061.25;;;17.48
55038;BMP280;40937;53.594;10.034;2023-06-14T00:19:11;102054.34;;;17.47
55038;BMP280;40937;53.594;10.034;2023-06-14T00:21:38;102050.78;;;17.41
55038;BMP280;40937;53.594;10.034;2023-06-14T00:24:08;102050.19;;;17.34
55038;BMP280;40937;53.594;10.034;2023-06-14T00:26:35;102049.38;;;17.33
55038;BMP280;40937;53.594;10.034;2023-06-14T00:29:02;102060.47;;;17.47
55038;BMP280;40937;53.594;10.034;2023-06-14T00:31:30;102060.41;;;17.42
55038;BMP280;40937;53.594;10.034;2023-06-14T00:33:57;102061.25;;;17.48
55038;BMP280;40937;53.594;10.034;2023-06-14T00:36:24;102064.16;;;17.46
55038;BMP280;40937;53.594;10.034;2023-06-14T00:38:51;102065.28;;;17.50
55038;BMP280;40937;53.594;10.034;2023-06-14T00:41:20;102065.28;;;17.50
55038;BMP280;40937;53.594;10.034;2023-06-14T00:43:47;102065.50;;;17.44
55038;BMP280;40937;53.594;10.034;2023-06-14T00:46:15;102071.31;;;17.40
55038;BMP280;40937;53.594;10.034;2023-06-14T00:48:42;102075.78;;;17.35
55038;BMP280;40937;53.594;10.034;2023-06-14T00:51:09;102071.25;;;17.35
55038;BMP280;40937;53.594;10.034;2023-06-14T00:53:37;102075.47;;;17.31
55038;BMP280;40937;53.594;10.034;2023-06-14T00:56:05;102084.75;;;17.29
55038;BMP280;40937;53.594;10.034;2023-06-14T00:58:34;102077.69;;;17.17
55038;BMP280;40937;53.594;10.034;2023-06-14T01:01:01;102083.72;;;17.08
55038;BMP280;40937;53.594;10.034;2023-06-14T01:03:28;102075.44;;;17.09
55038;BMP280;40937;53.594;10.034;2023-06-14T01:06:15;102084.81;;;17.12
55038;BMP280;40937;53.594;10.034;2023-06-14T01:09:03;102075.94;;;17.06
55038;BMP280;40937;53.594;10.034;2023-06-14T01:11:38;102077.72;;;17.01
55038;BMP280;40937;53.594;10.034;2023-06-14T01:14:10;102083.72;;;17.08
55038;BMP280;40937;53.594;10.034;2023-06-14T01:16:38;102083.44;;;17.09
55038;BMP280;40937;53.594;10.034;2023-06-14T01:19:09;102091.44;;;17.09
55038;BMP280;40937;53.594;10.034;2023-06-14T01:21:40;102093.50;;;17.24
55038;BMP280;40937;53.594;10.034;2023-06-14T01:24:09;102093.69;;;17.17
55038;BMP280;40937;53.594;10.034;2023-06-14T01:26:38;102091.28;;;17.16
55038;BMP280;40937;53.594;10.034;2023-06-14T01:29:12;102092.91;;;17.17
55038;BMP280;40937;53.594;10.034;2023-06-14T01:31:42;102084.75;;;17.07
55038;BMP280;40937;53.594;10.034;2023-06-14T01:34:11;102088.47;;;16.89
55038;BMP280;40937;53.594;10.034;2023-06-14T01:36:42;102087.59;;;16.83
55038;BMP280;40937;53.594;10.034;2023-06-14T01:39:14;102083.72;;;16.91
55038;BMP280;40937;53.594;10.034;2023-06-14T01:41:42;102087.34;;;17.02
55038;BMP280;40937;53.594;10.034;2023-06-14T01:44:12;102085.50;;;17.02
55038;BMP280;40937;53.594;10.034;2023-06-14T01:46:42;102087.72;;;16.93
55038;BMP280;40937;53.594;10.034;2023-06-14T01:49:11;102082.34;;;16.88
55038;BMP280;40937;53.594;10.034;2023-06-14T01:51:38;102084.03;;;16.94
55038;BMP280;40937;53.594;10.034;2023-06-14T01:54:06;102083.06;;;17.01
55038;BMP280;40937;53.594;10.034;2023-06-14T01:56:35;102083.00;;;16.95
55038;BMP280;40937;53.594;10.034;2023-06-14T01:59:02;102083.06;;;16.84
55038;BMP280;40937;53.594;10.034;2023-06-14T02:01:29;102088.81;;;16.92
55038;BMP280;40937;53.594;10.034;2023-06-14T02:03:56;102092.03;;;16.94
55038;BMP280;40937;53.594;10.034;2023-06-14T02:06:24;102097.13;;;16.79
55038;BMP280;40937;53.594;10.034;2023-06-14T02:08:51;102087.28;;;16.63
55038;BMP280;40937;53.594;10.034;2023-06-14T02:11:19;102087.41;;;16.73
55038;BMP280;40937;53.594;10.034;2023-06-14T02:13:48;102088.25;;;16.73
55038;BMP280;40937;53.594;10.034;2023-06-14T02:16:15;102086.47;;;16.79
55038;BMP280;40937;53.594;10.034;2023-06-14T02:18:43;102083.06;;;16.84
55038;BMP280;40937;53.594;10.034;2023-06-14T02:21:10;102091.66;;;16.69
55038;BMP280;40937;53.594;10.034;2023-06-14T02:23:37;102090.69;;;16.75
55038;BMP280;40937;53.594;10.034;2023-06-14T02:26:06;102090.69;;;16.75
55038;BMP280;40937;53.594;10.034;2023-06-14T02:28:34;102090.91;;;16.73
55038;BMP280;40937;53.594;10.034;2023-06-14T02:31:03;102088.03;;;16.75
55038;BMP280;40937;53.594;10.034;2023-06-14T02:33:31;102088.66;;;16.65
55038;BMP280;40937;53.594;10.034;2023-06-14T02:35:58;102086.81;;;16.66
55038;BMP280;40937;53.594;10.034;2023-06-14T02:38:26;102097.78;;;16.69
55038;BMP280;40937;53.594;10.034;2023-06-14T02:40:53;102094.16;;;16.75
55038;BMP280;40937;53.594;10.034;2023-06-14T02:43:20;102097.47;;;16.66
55038;BMP280;40937;53.594;10.034;2023-06-14T02:45:47;102100.50;;;16.57
55038;BMP280;40937;53.594;10.034;2023-06-14T02:48:16;102094.88;;;16.71
55038;BMP280;40937;53.594;10.034;2023-06-14T02:50:43;102103.50;;;16.61
55038;BMP280;40937;53.594;10.034;2023-06-14T02:53:10;102103.09;;;16.52
55038;BMP280;40937;53.594;10.034;2023-06-14T02:55:38;102098.72;;;16.46
55038;BMP280;40937;53.594;10.034;2023-06-14T02:58:06;102103.28;;;16.63
55038;BMP280;40937;53.594;10.034;2023-06-14T03:00:34;102106.56;;;16.70
55038;BMP280;40937;53.594;10.034;2023-06-14T03:03:02;102109.56;;;16.73
55038;BMP280;40937;53.594;10.034;2023-06-14T03:05:32;102105.47;;;16.66
55038;BMP280;40937;53.594;10.034;2023-06-14T03:08:00;102099.53;;;16.64
55038;BMP280;40937;53.594;10.034;2023-06-14T03:10:27;102108.13;;;16.66
55038;BMP280;40937;53.594;10.034;2023-06-14T03:12:56;102115.53;;;16.64
55038;BMP280;40937;53.594;10.034;2023-06-14T03:15:23;102114.16;;;16.61
55038;BMP280;40937;53.594;10.034;2023-06-14T03:17:51;102119.56;;;16.49
55038;BMP280;40937;53.594;10.034;2023-06-14T03:20:20;102122.22;;;16.49
55038;BMP280;40937;53.594;10.034;2023-06-14T03:22:49;102127.00;;;16.47
55038;BMP280;40937;53.594;10.034;2023-06-14T03:25:16;102123.66;;;16.40
55038;BMP280;40937;53.594;10.034;2023-06-14T03:27:47;102120.34;;;16.33
55038;BMP280;40937;53.594;10.034;2023-06-14T03:30:14;102119.03;;;16.35
55038;BMP280;40937;53.594;10.034;2023-06-14T03:32:44;102116.16;;;16.37
55038;BMP280;40937;53.594;10.034;2023-06-14T03:35:11;102122.69;;;16.46
55038;BMP280;40937;53.594;10.034;2023-06-14T03:37:43;102121.97;;;16.51
55038;BMP280;40937;53.594;10.034;2023-06-14T03:40:13;102122.94;;;16.45
55038;BMP280;40937;53.594;10.034;2023-06-14T03:42:42;102125.84;;;16.43
55038;BMP280;40937;53.594;10.034;2023-06-14T03:45:10;102130.22;;;16.49
55038;BMP280;40937;53.594;10.034;2023-06-14T03:47:37;102132.88;;;16.49
55038;BMP280;40937;53.594;10.034;2023-06-14T03:50:05;102126.31;;;16.40
55038;BMP280;40937;53.594;10.034;2023-06-14T03:52:33;102138.72;;;16.34
55038;BMP280;40937;53.594;10.034;2023-06-14T03:55:01;102141.53;;;16.40
55038;BMP280;40937;53.594;10.034;2023-06-14T03:57:30;102140.03;;;16.32
55038;BMP280;40937;53.594;10.034;2023-06-14T03:59:58;102141.81;;;16.43
55038;BMP280;40937;53.594;10.034;2023-06-14T04:02:27;102147.16;;;16.43
55038;BMP280;40937;53.594;10.034;2023-06-14T04:04:55;102158.28;;;16.40
55038;BMP280;40937;53.594;10.034;2023-06-14T04:07:22;102160.84;;;16.35
55038;BMP280;40937;53.594;10.034;2023-06-14T04:09:52;102153.28;;;16.44
55038;BMP280;40937;53.594;10.034;2023-06-14T04:12:19;102170.31;;;16.43
55038;BMP280;40937;53.594;10.034;2023-06-14T04:14:48;102166.72;;;16.49
55038;BMP280;40937;53.594;10.034;2023-06-14T04:17:15;102176.53;;;16.48
55038;BMP280;40937;53.594;10.034;2023-06-14T04:19:45;102179.13;;;16.43
55038;BMP280;40937;53.594;10.034;2023-06-14T04:22:13;102182.72;;;16.37
55038;BMP280;40937;53.594;10.034;2023-06-14T04:24:40;102176.91;;;16.40
55038;BMP280;40937;53.594;10.034;2023-06-14T04:27:08;102188.16;;;16.42
55038;BMP280;40937;53.594;10.034;2023-06-14T04:29:37;102182.72;;;16.37
55038;BMP280;40937;53.594;10.034;2023-06-14T04:32:10;102183.03;;;16.41
55038;BMP280;40937;53.594;10.034;2023-06-14T04:34:39;102188.16;;;16.42
55038;BMP280;40937;53.594;10.034;2023-06-14T04:37:08;102183.25;;;16.51
55038;BMP280;40937;53.594;10.034;2023-06-14T04:39:38;102181.56;;;16.62
55038;BMP280;40937;53.594;10.034;2023-06-14T04:42:06;102181.34;;;16.63
55038;BMP280;40937;53.594;10.034;2023-06-14T04:44:34;102183.69;;;16.60
55038;BMP280;40937;53.594;10.034;2023-06-14T04:47:04;102178.00;;;16.56
55038;BMP280;40937;53.594;10.034;2023-06-14T04:49:34;102176.44;;;16.55
55038;BMP280;40937;53.594;10.034;2023-06-14T04:52:01;102172.94;;;16.54
55038;BMP280;40937;53.594;10.034;2023-06-14T04:54:33;102173.03;;;16.60
55038;BMP280;40937;53.594;10.034;2023-06-14T04:57:04;102172.31;;;16.64
55038;BMP280;40937;53.594;10.034;2023-06-14T04:59:32;102187.69;;;16.62
55038;BMP280;40937;53.594;10.034;2023-06-14T05:01:59;102185.31;;;16.61
55038;BMP280;40937;53.594;10.034;2023-06-14T05:04:27;102180.88;;;16.66
55038;BMP280;40937;53.594;10.034;2023-06-14T05:06:57;102174.84;;;16.71
55038;BMP280;40937;53.594;10.034;2023-06-14T05:09:25;102180.81;;;16.78
55038;BMP280;40937;53.594;10.034;2023-06-14T05:11:52;102172.81;;;16.78
55038;BMP280;40937;53.594;10.034;2023-06-14T05:14:20;102171.69;;;16.91
55038;BMP280;40937;53.594;10.034;2023-06-14T05:16:49;102177.91;;;16.96
55038;BMP280;40937;53.594;10.034;2023-06-14T05:19:16;102173.78;;;17.06
55038;BMP280;40937;53.594;10.034;2023-06-14T05:21:44;102176.31;;;17.12
55038;BMP280;40937;53.594;10.034;2023-06-14T05:24:14;102173.28;;;17.26
55038;BMP280;40937;53.594;10.034;2023-06-14T05:26:43;102181.63;;;17.29
55038;BMP280;40937;53.594;10.034;2023-06-14T05:29:10;102176.97;;;17.42
55038;BMP280;40937;53.594;10.034;2023-06-14T05:31:37;102187.66;;;17.42
55038;BMP280;40937;53.594;10.034;2023-06-14T05:34:04;102194.78;;;17.53
55038;BMP280;40937;53.594;10.034;2023-06-14T05:36:32;102181.56;;;17.63
55038;BMP280;40937;53.594;10.034;2023-06-14T05:39:00;102187.34;;;17.60
55038;BMP280;40937;53.594;10.034;2023-06-14T05:41:30;102186.63;;;17.65
55038;BMP280;40937;53.594;10.034;2023-06-14T05:43:57;102183.13;;;17.59
55038;BMP280;40937;53.594;10.034;2023-06-14T05:46:26;102182.84;;;17.60
55038;BMP280;40937;53.594;10.034;2023-06-14T05:48:54;102189.69;;;17.73
55038;BMP280;40937;53.594;10.034;2023-06-14T05:51:22;102186.03;;;17.79
55038;BMP280;40937;53.594;10.034;2023-06-14T05:53:50;102196.81;;;17.90
55038;BMP280;40937;53.594;10.034;2023-06-14T05:56:18;102197.94;;;17.94
55038;BMP280;40937;53.594;10.034;2023-06-14T05:58:46;102203.28;;;17.94
55038;BMP280;40937;53.594;10.034;2023-06-14T06:01:14;102203.84;;;17.96
55038;BMP280;40937;53.594;10.034;2023-06-14T06:03:42;102205.75;;;18.00
55038;BMP280;40937;53.594;10.034;2023-06-14T06:06:11;102207.31;;;18.18
55038;BMP280;40937;53.594;10.034;2023-06-14T06:08:38;102202.63;;;18.31
55038;BMP280;40937;53.594;10.034;2023-06-14T06:11:07;102205.19;;;18.48
55038;BMP280;40937;53.594;10.034;2023-06-14T06:13:35;102204.03;;;18.65
55038;BMP280;40937;53.594;10.034;2023-06-14T06:16:04;102206.25;;;18.74
55038;BMP280;40937;53.594;10.034;2023-06-14T06:18:31;102203.63;;;18.79
55038;BMP280;40937;53.594;10.034;2023-06-14T06:20:59;102207.44;;;18.88
55038;BMP280;40937;53.594;10.034;2023-06-14T06:23:26;102210.63;;;18.90
55038;BMP280;40937;53.594;10.034;2023-06-14T06:25:53;102210.16;;;18.93
55038;BMP280;40937;53.594;10.034;2023-06-14T06:28:21;102211.19;;;18.92
55038;BMP280;40937;53.594;10.034;2023-06-14T06:30:48;102214.97;;;18.96
55038;BMP280;40937;53.594;10.034;2023-06-14T06:33:17;102214.97;;;18.96
55038;BMP280;40937;53.594;10.034;2023-06-14T06:35:45;102217.09;;;18.89
55038;BMP280;40937;53.594;10.034;2023-06-14T06:38:12;102217.19;;;18.72
55038;BMP280;40937;53.594;10.034;2023-06-14T06:40:39;102220.06;;;18.65
55038;BMP280;40937;53.594;10.034;2023-06-14T06:43:06;102225.22;;;18.72
55038;BMP280;40937;53.594;10.034;2023-06-14T06:45:41;102215.72;;;18.86
55038;BMP280;40937;53.594;10.034;2023-06-14T06:48:08;102219.78;;;18.94
55038;BMP280;40937;53.594;10.034;2023-06-14T06:50:37;102220.84;;;18.93
55038;BMP280;40937;53.594;10.034;2023-06-14T06:53:04;102231.59;;;18.98
55038;BMP280;40937;53.594;10.034;2023-06-14T06:55:32;102228.44;;;19.06
55038;BMP280;40937;53.594;10.034;2023-06-14T06:57:59;102239.19;;;19.12
55038;BMP280;40937;53.594;10.034;2023-06-14T07:00:27;102230.59;;;19.10
55038;BMP280;40937;53.594;10.034;2023-06-14T07:02:54;102238.66;;;19.15
55038;BMP280;40937;53.594;10.034;2023-06-14T07:05:22;102242.25;;;19.31
55038;BMP280;40937;53.594;10.034;2023-06-14T07:07:51;102233.94;;;19.32
55038;BMP280;40937;53.594;10.034;2023-06-14T07:10:18;102238.78;;;19.30
55038;BMP280;40937;53.594;10.034;2023-06-14T07:12:46;102237.44;;;19.33
55038;BMP280;40937;53.594;10.034;2023-06-14T07:15:13;102235.41;;;19.50
55038;BMP280;40937;53.594;10.034;2023-06-14T07:17:40;102239.69;;;19.51
55038;BMP280;40937;53.594;10.034;2023-06-14T07:20:09;102239.94;;;19.49
55038;BMP280;40937;53.594;10.034;2023-06-14T07:22:39;102235.97;;;19.57
55038;BMP280;40937;53.594;10.034;2023-06-14T07:25:10;102235.25;;;19.72
55038;BMP280;40937;53.594;10.034;2023-06-14T07:27:40;102240.59;;;19.77
55038;BMP280;40937;53.594;10.034;2023-06-14T07:30:08;102235.78;;;19.74
55038;BMP280;40937;53.594;10.034;2023-06-14T07:32:36;102245.16;;;19.77
55038;BMP280;40937;53.594;10.034;2023-06-14T07:35:04;102235.84;;;19.79
55038;BMP280;40937;53.594;10.034;2023-06-14T07:37:31;102229.41;;;19.80
55038;BMP280;40937;53.594;10.034;2023-06-14T07:39:58;102231.53;;;19.78
55038;BMP280;40937;53.594;10.034;2023-06-14T07:42:26;102227.25;;;19.82
55038;BMP280;40937;53.594;10.034;2023-06-14T07:44:54;102234.78;;;19.90
55038;BMP280;40937;53.594;10.034;2023-06-14T07:47:21;102237.00;;;20.09
55038;BMP280;40937;53.594;10.034;2023-06-14T07:49:48;102235.38;;;20.08
55038;BMP280;40937;53.594;10.034;2023-06-14T07:52:15;102240.78;;;20.18
55038;BMP280;40937;53.594;10.034;2023-06-14T07:54:43;102228.97;;;20.14
55038;BMP280;40937;53.594;10.034;2023-06-14T07:57:10;102237.03;;;20.29
55038;BMP280;40937;53.594;10.034;2023-06-14T07:59:39;102236.53;;;20.32
55038;BMP280;40937;53.594;10.034;2023-06-14T08:02:06;102234.38;;;20.40
55038;BMP280;40937;53.594;10.034;2023-06-14T08:04:33;102241.91;;;20.53
55038;BMP280;40937;53.594;10.034;2023-06-14T08:07:01;102234.91;;;20.52
55038;BMP280;40937;53.594;10.034;2023-06-14T08:09:28;102229.81;;;20.55
55038;BMP280;40937;53.594;10.034;2023-06-14T08:11:56;102222.06;;;20.49
55038;BMP280;40937;53.594;10.034;2023-06-14T08:14:23;102219.38;;;20.54
55038;BMP280;40937;53.594;10.034;2023-06-14T08:16:51;102219.91;;;20.56
55038;BMP280;40937;53.594;10.034;2023-06-14T08:19:19;102212.44;;;20.63
55038;BMP280;40937;53.594;10.034;2023-06-14T08:21:46;102222.31;;;20.68
55038;BMP280;40937;53.594;10.034;2023-06-14T08:24:14;102220.97;;;20.70
55038;BMP280;40937;53.594;10.034;2023-06-14T08:26:41;102221.81;;;20.76
55038;BMP280;40937;53.594;10.034;2023-06-14T08:29:08;102223.69;;;20.75
55038;BMP280;40937;53.594;10.034;2023-06-14T08:31:35;102218.03;;;20.82
55038;BMP280;40937;53.594;10.034;2023-06-14T08:34:04;102219.09;;;20.91
55038;BMP280;40937;53.594;10.034;2023-06-14T08:36:35;102218.78;;;21.03
55038;BMP280;40937;53.594;10.034;2023-06-14T08:39:02;102215.56;;;21.11
55038;BMP280;40937;53.594;10.034;2023-06-14T08:41:29;102216.63;;;21.20
55038;BMP280;40937;53.594;10.034;2023-06-14T08:43:57;102210.69;;;21.18
55038;BMP280;40937;53.594;10.034;2023-06-14T08:46:26;102224.69;;;21.20
55038;BMP280;40937;53.594;10.034;2023-06-14T08:48:55;102216.38;;;21.22
55038;BMP280;40937;53.594;10.034;2023-06-14T08:51:25;102220.34;;;21.25
55038;BMP280;40937;53.594;10.034;2023-06-14T08:53:53;102224.66;;;21.31
55038;BMP280;40937;53.594;10.034;2023-06-14T08:56:25;102223.00;;;21.40
55038;BMP280;40937;53.594;10.034;2023-06-14T08:58:53;102227.56;;;21.39
55038;BMP280;40937;53.594;10.034;2023-06-14T09:01:21;102223.81;;;21.40
55038;BMP280;40937;53.594;10.034;2023-06-14T09:03:49;102227.56;;;21.39
55038;BMP280;40937;53.594;10.034;2023-06-14T09:06:17;102224.03;;;21.49
55038;BMP280;40937;53.594;10.034;2023-06-14T09:08:46;102237.44;;;21.54
55038;BMP280;40937;53.594;10.034;2023-06-14T09:11:15;102225.66;;;21.55
55038;BMP280;40937;53.594;10.034;2023-06-14T09:13:46;102226.41;;;21.56
55038;BMP280;40937;53.594;10.034;2023-06-14T09:16:16;102233.13;;;21.63
55038;BMP280;40937;53.594;10.034;2023-06-14T09:18:44;102222.88;;;21.71
55038;BMP280;40937;53.594;10.034;2023-06-14T09:21:15;102220.44;;;21.74
55038;BMP280;40937;53.594;10.034;2023-06-14T09:23:43;102213.69;;;21.82
55038;BMP280;40937;53.594;10.034;2023-06-14T09:26:14;102226.56;;;21.90
55038;BMP280;40937;53.594;10.034;2023-06-14T09:28:42;102222.22;;;21.99
55038;BMP280;40937;53.594;10.034;2023-06-14T09:31:10;102222.16;;;22.04
55038;BMP280;40937;53.594;10.034;2023-06-14T09:33:37;102222.16;;;22.04
55038;BMP280;40937;53.594;10.034;2023-06-14T09:36:10;102222.16;;;22.04
55038;BMP280;40937;53.594;10.034;2023-06-14T09:38:38;102229.63;;;22.13
55038;BMP280;40937;53.594;10.034;2023-06-14T09:41:06;102221.06;;;22.11
55038;BMP280;40937;53.594;10.034;2023-06-14T09:43:35;102230.66;;;22.17
55038;BMP280;40937;53.594;10.034;2023-06-14T09:48:35;102230.03;;;22.30
55038;BMP280;40937;53.594;10.034;2023-06-14T09:51:02;102225.72;;;22.34
55038;BMP280;40937;53.594;10.034;2023-06-14T09:53:33;102216.00;;;22.38
55038;BMP280;40937;53.594;10.034;2023-06-14T09:56:04;102225.09;;;22.42
55038;BMP280;40937;53.594;10.034;2023-06-14T09:58:35;102217.59;;;22.39
55038;BMP280;40937;53.594;10.034;2023-06-14T10:01:05;102216.47;;;22.45
55038;BMP280;40937;53.594;10.034;2023-06-14T10:03:34;102215.09;;;22.48
55038;BMP280;40937;53.594;10.034;2023-06-14T10:06:07;102223.94;;;22.54
55038;BMP280;40937;53.594;10.034;2023-06-14T10:08:40;102222.34;;;22.52
55038;BMP280;40937;53.594;10.034;2023-06-14T10:11:07;102212.97;;;22.45
55038;BMP280;40937;53.594;10.034;2023-06-14T10:13:36;102231.75;;;22.55
55038;BMP280;40937;53.594;10.034;2023-06-14T10:16:09;102216.13;;;22.57
55038;BMP280;40937;53.594;10.034;2023-06-14T10:18:43;102222.19;;;22.68
55038;BMP280;40937;53.594;10.034;2023-06-14T10:21:18;102214.03;;;22.78
55038;BMP280;40937;53.594;10.034;2023-06-14T10:23:49;102211.28;;;22.83
55038;BMP280;40937;53.594;10.034;2023-06-14T10:26:19;102212.78;;;22.94
55038;BMP280;40937;53.594;10.034;2023-06-14T10:29:07;102210.28;;;23.03
55038;BMP280;40937;53.594;10.034;2023-06-14T10:31:42;102209.44;;;23.03
55038;BMP280;40937;53.594;10.034;2023-06-14T10:34:10;102209.75;;;23.01
55038;BMP280;40937;53.594;10.034;2023-06-14T10:36:41;102204.22;;;22.87
55038;BMP280;40937;53.594;10.034;2023-06-14T10:39:14;102201.50;;;22.92
55038;BMP280;40937;53.594;10.034;2023-06-14T10:41:50;102199.63;;;22.93
55038;BMP280;40937;53.594;10.034;2023-06-14T10:44:38;102194.44;;;22.96
55038;BMP280;40937;53.594;10.034;2023-06-14T10:47:24;102191.66;;;23.07
55038;BMP280;40937;53.594;10.034;2023-06-14T10:49:54;102190.03;;;23.06
55038;BMP280;40937;53.594;10.034;2023-06-14T10:52:24;102194.34;;;23.07
55038;BMP280;40937;53.594;10.034;2023-06-14T10:55:08;102190.03;;;23.06
55038;BMP280;40937;53.594;10.034;2023-06-14T10:57:42;102196.53;;;23.05
55038;BMP280;40937;53.594;10.034;2023-06-14T11:00:11;102193.53;;;23.06
55038;BMP280;40937;53.594;10.034;2023-06-14T11:05:51;102172.66;;;23.17
55038;BMP280;40937;53.594;10.034;2023-06-14T11:08:39;102174.47;;;23.22
55038;BMP280;40937;53.594;10.034;2023-06-14T11:11:08;102178.97;;;23.31
55038;BMP280;40937;53.594;10.034;2023-06-14T11:13:38;102183.78;;;23.34
55038;BMP280;40937;53.594;10.034;2023-06-14T11:16:12;102164.88;;;23.39
55038;BMP280;40937;53.594;10.034;2023-06-14T11:18:39;102167.19;;;23.46
55038;BMP280;40937;53.594;10.034;2023-06-14T11:21:07;102161.00;;;23.46
55038;BMP280;40937;53.594;10.034;2023-06-14T11:23:35;102157.13;;;23.52
55038;BMP280;40937;53.594;10.034;2023-06-14T11:26:03;102162.13;;;23.58
55038;BMP280;40937;53.594;10.034;2023-06-14T11:28:37;102160.63;;;23.71
55038;BMP280;40937;53.594;10.034;2023-06-14T11:31:05;102157.31;;;23.74
55038;BMP280;40937;53.594;10.034;2023-06-14T11:33:34;102155.19;;;23.76
55038;BMP280;40937;53.594;10.034;2023-06-14T11:36:02;102148.88;;;23.81
55038;BMP280;40937;53.594;10.034;2023-06-14T11:38:30;102148.25;;;23.70
55038;BMP280;40937;53.594;10.034;2023-06-14T11:41:01;102154.94;;;23.73
55038;BMP280;40937;53.594;10.034;2023-06-14T11:43:28;102154.47;;;23.84
55038;BMP280;40937;53.594;10.034;2023-06-14T11:45:57;102160.91;;;23.89
55038;BMP280;40937;53.594;10.034;2023-06-14T11:48:37;102151.72;;;23.90
55038;BMP280;40937;53.594;10.034;2023-06-14T11:51:04;102150.03;;;23.94
55038;BMP280;40937;53.594;10.034;2023-06-14T11:53:32;102141.19;;;24.07
55038;BMP280;40937;53.594;10.034;2023-06-14T11:55:59;102148.19;;;24.22
55038;BMP280;40937;53.594;10.034;2023-06-14T11:58:29;102141.31;;;24.29
55038;BMP280;40937;53.594;10.034;2023-06-14T12:00:56;102143.63;;;24.36
55038;BMP280;40937;53.594;10.034;2023-06-14T12:03:23;102139.25;;;24.40
55038;BMP280;40937;53.594;10.034;2023-06-14T12:06:04;102141.47;;;24.38
55038;BMP280;40937;53.594;10.034;2023-06-14T12:08:36;102138.84;;;24.47
55038;BMP280;40937;53.594;10.034;2023-06-14T12:11:05;102136.25;;;24.42
55038;BMP280;40937;53.594;10.034;2023-06-14T12:13:34;102118.78;;;24.53
55038;BMP280;40937;53.594;10.034;2023-06-14T12:16:04;102131.56;;;24.61
55038;BMP280;40937;53.594;10.034;2023-06-14T12:18:33;102121.16;;;24.55
55038;BMP280;40937;53.594;10.034;2023-06-14T12:21:02;102116.91;;;24.67
55038;BMP280;40937;53.594;10.034;2023-06-14T12:23:42;102125.25;;;24.80
55038;BMP280;40937;53.594;10.034;2023-06-14T12:26:12;102128.25;;;24.78
55038;BMP280;40937;53.594;10.034;2023-06-14T12:28:40;102129.25;;;24.68
55038;BMP280;40937;53.594;10.034;2023-06-14T12:31:08;102118.44;;;24.68
55038;BMP280;40937;53.594;10.034;2023-06-14T12:33:35;102116.91;;;24.67
55038;BMP280;40937;53.594;10.034;2023-06-14T12:36:05;102112.16;;;24.73
55038;BMP280;40937;53.594;10.034;2023-06-14T12:38:33;102113.34;;;24.81
55038;BMP280;40937;53.594;10.034;2023-06-14T12:41:01;102128.94;;;24.98
55038;BMP280;40937;53.594;10.034;2023-06-14T12:43:28;102118.53;;;25.05
55038;BMP280;40937;53.594;10.034;2023-06-14T12:45:55;102132.59;;;25.15
55038;BMP280;40937;53.594;10.034;2023-06-14T12:48:22;102122.78;;;25.20
55038;BMP280;40937;53.594;10.034;2023-06-14T12:50:49;102117.22;;;25.02
55038;BMP280;40937;53.594;10.034;2023-06-14T12:53:18;102117.47;;;25.14
55038;BMP280;40937;53.594;10.034;2023-06-14T12:55:46;102122.50;;;25.07
55038;BMP280;40937;53.594;10.034;2023-06-14T12:58:13;102114.34;;;24.99
55038;BMP280;40937;53.594;10.034;2023-06-14T13:00:40;102116.00;;;25.08
55038;BMP280;40937;53.594;10.034;2023-06-14T13:03:07;102114.75;;;25.28
55038;BMP280;40937;53.594;10.034;2023-06-14T13:05:34;102111.69;;;25.44
55038;BMP280;40937;53.594;10.034;2023-06-14T13:08:03;102114.69;;;25.42
55038;BMP280;40937;53.594;10.034;2023-06-14T13:10:31;102123.81;;;25.32
55038;BMP280;40937;53.594;10.034;2023-06-14T13:12:59;102116.28;;;25.43
55038;BMP280;40937;53.594;10.034;2023-06-14T13:15:26;102121.81;;;25.60
55038;BMP280;40937;53.594;10.034;2023-06-14T13:17:53;102120.22;;;25.59
55038;BMP280;40937;53.594;10.034;2023-06-14T13:20:21;102110.91;;;25.66
55038;BMP280;40937;53.594;10.034;2023-06-14T13:22:48;102103.75;;;25.70
55038;BMP280;40937;53.594;10.034;2023-06-14T13:25:15;102116.88;;;25.85
55038;BMP280;40937;53.594;10.034;2023-06-14T13:27:44;102105.19;;;25.98
55038;BMP280;40937;53.594;10.034;2023-06-14T13:30:12;102114.03;;;25.90
55038;BMP280;40937;53.594;10.034;2023-06-14T13:32:39;102110.53;;;25.90
55038;BMP280;40937;53.594;10.034;2023-06-14T13:35:06;102110.75;;;25.71
55038;BMP280;40937;53.594;10.034;2023-06-14T13:37:34;102113.59;;;25.66
55038;BMP280;40937;53.594;10.034;2023-06-14T13:40:01;102113.63;;;25.74
55038;BMP280;40937;53.594;10.034;2023-06-14T13:42:28;102111.75;;;25.75
55038;BMP280;40937;53.594;10.034;2023-06-14T13:44:58;102101.88;;;25.79
55038;BMP280;40937;53.594;10.034;2023-06-14T13:47:25;102104.81;;;25.91
55038;BMP280;40937;53.594;10.034;2023-06-14T13:49:53;102105.34;;;26.02
55038;BMP280;40937;53.594;10.034;2023-06-14T13:52:20;102097.97;;;26.16
55038;BMP280;40937;53.594;10.034;2023-06-14T13:54:48;102099.34;;;26.14
55038;BMP280;40937;53.594;10.034;2023-06-14T13:57:15;102112.25;;;26.17
55038;BMP280;40937;53.594;10.034;2023-06-14T13:59:43;102111.13;;;26.09